FranceFixed distance
Grand Trail du Lac
19 Oct2025
Distance
75km
Finishers
459399 men60 women
Winning time
7:27:46h
Median pace
6.38km/h
Pace distribution
459 finishers · 4.82–10.05 km/h · mean 6.45
Every finisher ran the same 75 km course, so these paces are directly comparable.
Histogram of finisher pace. 459 finishers ranged from 4.82 to 10.05 kilometres per hour, with a mean of 6.45 and a median of 6.38. The busiest band is 5.0 to 5.5 kilometres per hour, with 89 finishers.
Results
Ranks 201–250 of 459
| Rank | Runner | Time | Pace | Cat. | Placing |
|---|---|---|---|---|---|
| 201 | *Saint-Offenge | 11:27:10h | 6.55 | M35 | 185th M · 43rd M35 |
| 202 | ESF Valmeinier | 11:28:37h | 6.54 | M40 | 186th M · 27th M40 |
| 203 | Cèpegang | 11:28:42h | 6.53 | M23 | 187th M · 89th M23 |
| 204 | *Chambéry | 11:29:49h | 6.52 | M23 | 188th M · 90th M23 |
| 205 | Terre de Running Grand... | 11:29:59h | 6.52 | M23 | 189th M · 91st M23 |
| 206 | *Béthune | 11:30:00h | 6.52 | M23 | 190th M · 92nd M23 |
| 207 | *Orléans | 11:31:51h | 6.50 | MU23 | 191st M · 13th MU23 |
| 208 | Migennes Triathlon Club | 11:32:03h | 6.50 | M55 | 192nd M · 3rd M55 |
| 209 | *Clermont-Ferrand | 11:32:18h | 6.50 | M50 | 193rd M · 8th M50 |
| 210 | SMS Cyclo | 11:32:20h | 6.50 | M60 | 194th M · 2nd M60 |
| 211 | *Grésy-Sur-Aix | 11:33:31h | 6.49 | M45 | 195th M · 7th M45 |
| 212 | LE Pack | 11:34:51h | 6.48 | M35 | 196th M · 44th M35 |
| 213 | *Grenoble | 11:37:29h | 6.45 | M35 | 197th M · 45th M35 |
| 214 | *Surat | 11:39:40h | 6.43 | M45 | 198th M · 8th M45 |
| 215 | *Paris | 11:39:46h | 6.43 | M23 | 199th M · 93rd M23 |
| 216 | *Massingy | 11:40:21h | 6.42 | W35 | 17th F · 1st W35 |
| 217 | *Cernay-L'Église | 11:41:27h | 6.42 | M23 | 200th M · 94th M23 |
| 218 | *Court-Saint-Étienne | 11:41:29h | 6.42 | M45 | 201st M · 9th M45 |
| 219 | *Bourg-En-Bresse | 11:41:56h | 6.41 | M23 | 202nd M · 95th M23 |
| 220 | ACP Entrelacs | 11:41:56h | 6.41 | M35 | 202nd M · 46th M35 |
| 221 | *Poitiers | 11:42:57h | 6.40 | M35 | 204th M · 47th M35 |
| 222 | *Etaux | 11:43:03h | 6.40 | M40 | 205th M · 28th M40 |
| 223 | *Viviers-Du-Lac | 11:43:08h | 6.40 | M35 | 206th M · 48th M35 |
| 224 | *Apremont | 11:43:42h | 6.39 | M23 | 207th M · 96th M23 |
| 225 | Brissac Loire Aubance ... | 11:44:12h | 6.39 | M55 | 208th M · 4th M55 |
| 226 | Association Petit Lulu | 11:44:30h | 6.39 | M35 | 209th M · 49th M35 |
| 227 | Petit Lulu | 11:44:31h | 6.39 | M35 | 210th M · 50th M35 |
| 228 | *Chambéry | 11:45:39h | 6.38 | M35 | 211th M · 51st M35 |
| 229 | Team Chamois | 11:45:40h | 6.38 | W23 | 18th F · 11th W23 |
| 230 | *Massingy | 11:45:54h | 6.38 | M45 | 212th M · 10th M45 |
| 231 | *Puteaux | 11:46:24h | 6.37 | M23 | 213th M · 97th M23 |
| 232 | *Lugrin | 11:46:34h | 6.37 | M23 | 214th M · 98th M23 |
| 233 | *Marines | 11:47:08h | 6.36 | M45 | 215th M · 11th M45 |
| 234 | Cadence | 11:47:48h | 6.36 | M35 | 216th M · 52nd M35 |
| 235 | *Chambéry | 11:48:01h | 6.36 | M35 | 217th M · 53rd M35 |
| 236 | *Prâlon | 11:48:01h | 6.36 | M23 | 217th M · 99th M23 |
| 237 | *Pontcharra | 11:48:18h | 6.35 | M45 | 219th M · 12th M45 |
| 238 | Oxygène | 11:50:14h | 6.34 | M45 | 220th M · 13th M45 |
| 239 | *Méry | 11:50:30h | 6.33 | M35 | 221st M · 54th M35 |
| 240 | Smeb49 | 11:51:33h | 6.32 | M23 | 222nd M · 100th M23 |
| 241 | Trgv | 11:51:51h | 6.32 | M40 | 223rd M · 29th M40 |
| 242 | Esf4Ever | 11:54:57h | 6.29 | M23 | 224th M · 101st M23 |
| 243 | *Saint-Égrève | 11:56:23h | 6.28 | M23 | 225th M · 102nd M23 |
| 244 | *Agde | 11:56:37h | 6.28 | M23 | 226th M · 103rd M23 |
| 245 | *Chambéry | 11:57:28h | 6.27 | W23 | 19th F · 12th W23 |
| 246 | *Chambéry | 11:57:28h | 6.27 | M23 | 227th M · 104th M23 |
| 247 | *Cognin | 11:58:00h | 6.27 | M23 | 228th M · 105th M23 |
| 248 | *Paris | 11:58:48h | 6.26 | W23 | 20th F · 13th W23 |
| 249 | V'Hiking | 12:00:41h | 6.24 | M23 | 229th M · 106th M23 |
| 250 | *Saint-Pierre-D'Albigny | 12:03:02h | 6.22 | M40 | 230th M · 30th M40 |
- 201*Saint-Offenge185th M · 43rd M35Time11:27:10hPace6.55Cat.M35
- 202ESF Valmeinier186th M · 27th M40Time11:28:37hPace6.54Cat.M40
- 203Cèpegang187th M · 89th M23Time11:28:42hPace6.53Cat.M23
- 204*Chambéry188th M · 90th M23Time11:29:49hPace6.52Cat.M23
- 205Terre de Running Grand...189th M · 91st M23Time11:29:59hPace6.52Cat.M23
- 206*Béthune190th M · 92nd M23Time11:30:00hPace6.52Cat.M23
- 207*Orléans191st M · 13th MU23Time11:31:51hPace6.50Cat.MU23
- 208Migennes Triathlon Club192nd M · 3rd M55Time11:32:03hPace6.50Cat.M55
- 209*Clermont-Ferrand193rd M · 8th M50Time11:32:18hPace6.50Cat.M50
- 210SMS Cyclo194th M · 2nd M60Time11:32:20hPace6.50Cat.M60
- 211*Grésy-Sur-Aix195th M · 7th M45Time11:33:31hPace6.49Cat.M45
- 212LE Pack196th M · 44th M35Time11:34:51hPace6.48Cat.M35
- 213*Grenoble197th M · 45th M35Time11:37:29hPace6.45Cat.M35
- 214*Surat198th M · 8th M45Time11:39:40hPace6.43Cat.M45
- 215*Paris199th M · 93rd M23Time11:39:46hPace6.43Cat.M23
- 216*Massingy17th F · 1st W35Time11:40:21hPace6.42Cat.W35
- 217*Cernay-L'Église200th M · 94th M23Time11:41:27hPace6.42Cat.M23
- 218*Court-Saint-Étienne201st M · 9th M45Time11:41:29hPace6.42Cat.M45
- 219*Bourg-En-Bresse202nd M · 95th M23Time11:41:56hPace6.41Cat.M23
- 220ACP Entrelacs202nd M · 46th M35Time11:41:56hPace6.41Cat.M35
- 221*Poitiers204th M · 47th M35Time11:42:57hPace6.40Cat.M35
- 222*Etaux205th M · 28th M40Time11:43:03hPace6.40Cat.M40
- 223*Viviers-Du-Lac206th M · 48th M35Time11:43:08hPace6.40Cat.M35
- 224*Apremont207th M · 96th M23Time11:43:42hPace6.39Cat.M23
- 225Brissac Loire Aubance ...208th M · 4th M55Time11:44:12hPace6.39Cat.M55
- 226Association Petit Lulu209th M · 49th M35Time11:44:30hPace6.39Cat.M35
- 227Petit Lulu210th M · 50th M35Time11:44:31hPace6.39Cat.M35
- 228*Chambéry211th M · 51st M35Time11:45:39hPace6.38Cat.M35
- 229Team Chamois18th F · 11th W23Time11:45:40hPace6.38Cat.W23
- 230*Massingy212th M · 10th M45Time11:45:54hPace6.38Cat.M45
- 231*Puteaux213th M · 97th M23Time11:46:24hPace6.37Cat.M23
- 232*Lugrin214th M · 98th M23Time11:46:34hPace6.37Cat.M23
- 233*Marines215th M · 11th M45Time11:47:08hPace6.36Cat.M45
- 234Cadence216th M · 52nd M35Time11:47:48hPace6.36Cat.M35
- 235*Chambéry217th M · 53rd M35Time11:48:01hPace6.36Cat.M35
- 236*Prâlon217th M · 99th M23Time11:48:01hPace6.36Cat.M23
- 237*Pontcharra219th M · 12th M45Time11:48:18hPace6.35Cat.M45
- 238Oxygène220th M · 13th M45Time11:50:14hPace6.34Cat.M45
- 239*Méry221st M · 54th M35Time11:50:30hPace6.33Cat.M35
- 240Smeb49222nd M · 100th M23Time11:51:33hPace6.32Cat.M23
- 241Trgv223rd M · 29th M40Time11:51:51hPace6.32Cat.M40
- 242Esf4Ever224th M · 101st M23Time11:54:57hPace6.29Cat.M23
- 243*Saint-Égrève225th M · 102nd M23Time11:56:23hPace6.28Cat.M23
- 244*Agde226th M · 103rd M23Time11:56:37hPace6.28Cat.M23
- 245*Chambéry19th F · 12th W23Time11:57:28hPace6.27Cat.W23
- 246*Chambéry227th M · 104th M23Time11:57:28hPace6.27Cat.M23
- 247*Cognin228th M · 105th M23Time11:58:00hPace6.27Cat.M23
- 248*Paris20th F · 13th W23Time11:58:48hPace6.26Cat.W23
- 249V'Hiking229th M · 106th M23Time12:00:41hPace6.24Cat.M23
- 250*Saint-Pierre-D'Albigny230th M · 30th M40Time12:03:02hPace6.22Cat.M40
Showing ranks 201–250 of 459